Terminal Aerodrome Forecast
Issued by NWS

Home | Current Version | Previous Version | Text Only | Print | Product List | Glossary On
Versions: 1 2 3 4 5 6 7 8 9 10 11 12 13 14 15 16 17 18 19 20 21 22 23 24 25 26
000
FTUS41 KBUF 171724
TAFJHW
TAF
KJHW 171724Z 1718/1818 25005KT P6SM BKN020
     FM172100 17004KT P6SM BKN120
     FM180700 17014KT P6SM BKN120 WS020/20040KT
     FM180900 17014KT 6SM -RA OVC080 WS020/20040KT
     FM181200 17017KT 6SM -RA OVC007 WS020/19045KT
      AMD LTD TO CLD VIS AND WIND=

USA.gov is the U.S. government's official web portal to all federal, state and local government web resources and services.